sensor_id;sensor_type;location;lat;lon;timestamp;pressure;altitude;pressure_sealevel;temperature;humidity
29569;BME280;16501;51.462;14.346;2022-09-09T00:09:16;99764.22;;;15.15;100.00
29569;BME280;16501;51.462;14.346;2022-09-09T00:11:52;99750.38;;;15.05;100.00
29569;BME280;16501;51.462;14.346;2022-09-09T00:14:34;99745.53;;;14.95;99.55
29569;BME280;16501;51.462;14.346;2022-09-09T00:17:06;99763.72;;;15.05;99.58
29569;BME280;16501;51.462;14.346;2022-09-09T00:19:53;99766.03;;;15.01;99.33
29569;BME280;16501;51.462;14.346;2022-09-09T00:22:25;99757.56;;;15.01;99.80
29569;BME280;16501;51.462;14.346;2022-09-09T00:24:54;99753.72;;;14.98;99.50
29569;BME280;16501;51.462;14.346;2022-09-09T00:27:56;99734.00;;;14.76;99.08
29569;BME280;16501;51.462;14.346;2022-09-09T00:30:28;99760.91;;;14.94;99.10
29569;BME280;16501;51.462;14.346;2022-09-09T00:33:01;99756.28;;;14.90;98.90
29569;BME280;16501;51.462;14.346;2022-09-09T00:35:36;99766.31;;;14.80;99.08
29569;BME280;16501;51.462;14.346;2022-09-09T00:40:52;99762.72;;;14.80;99.12
29569;BME280;16501;51.462;14.346;2022-09-09T00:43:31;99767.13;;;14.75;99.10
29569;BME280;16501;51.462;14.346;2022-09-09T00:48:42;99762.50;;;14.72;99.22
29569;BME280;16501;51.462;14.346;2022-09-09T00:57:09;99763.00;;;14.65;100.00
29569;BME280;16501;51.462;14.346;2022-09-09T01:05:34;99767.63;;;14.62;100.00
29569;BME280;16501;51.462;14.346;2022-09-09T01:10:53;99756.06;;;14.55;100.00
29569;BME280;16501;51.462;14.346;2022-09-09T01:13:25;99769.41;;;14.65;100.00
29569;BME280;16501;51.462;14.346;2022-09-09T01:15:52;99759.13;;;14.57;100.00
29569;BME280;16501;51.462;14.346;2022-09-09T01:18:27;99764.78;;;14.57;100.00
29569;BME280;16501;51.462;14.346;2022-09-09T01:28:50;99769.44;;;14.60;100.00
29569;BME280;16501;51.462;14.346;2022-09-09T01:31:37;99738.88;;;14.36;100.00
29569;BME280;16501;51.462;14.346;2022-09-09T01:34:12;99770.69;;;14.47;100.00
29569;BME280;16501;51.462;14.346;2022-09-09T01:39:23;99762.44;;;14.38;100.00
29569;BME280;16501;51.462;14.346;2022-09-09T01:41:50;99771.69;;;14.44;100.00
29569;BME280;16501;51.462;14.346;2022-09-09T01:44:15;99776.28;;;14.42;100.00
29569;BME280;16501;51.462;14.346;2022-09-09T01:46:43;99759.13;;;14.34;100.00
29569;BME280;16501;51.462;14.346;2022-09-09T01:49:08;99749.91;;;14.33;100.00
29569;BME280;16501;51.462;14.346;2022-09-09T01:51:35;99762.19;;;14.42;100.00
29569;BME280;16501;51.462;14.346;2022-09-09T01:54:02;99745.03;;;14.28;100.00
29569;BME280;16501;51.462;14.346;2022-09-09T02:05:38;99775.53;;;14.36;100.00
29569;BME280;16501;51.462;14.346;2022-09-09T02:08:09;99769.13;;;14.35;100.00
29569;BME280;16501;51.462;14.346;2022-09-09T02:11:11;99772.94;;;14.26;100.00
29569;BME280;16501;51.462;14.346;2022-09-09T02:13:38;99766.53;;;14.14;100.00
29569;BME280;16501;51.462;14.346;2022-09-09T02:16:08;99778.06;;;14.22;100.00
29569;BME280;16501;51.462;14.346;2022-09-09T02:18:53;99751.16;;;14.04;100.00
29569;BME280;16501;51.462;14.346;2022-09-09T02:21:21;99776.03;;;14.23;100.00
29569;BME280;16501;51.462;14.346;2022-09-09T02:23:48;99762.19;;;14.13;100.00
29569;BME280;16501;51.462;14.346;2022-09-09T02:26:19;99779.63;;;14.23;100.00
29569;BME280;16501;51.462;14.346;2022-09-09T02:28:50;99777.03;;;14.14;100.00
29569;BME280;16501;51.462;14.346;2022-09-09T02:31:17;99727.53;;;13.85;100.00
29569;BME280;16501;51.462;14.346;2022-09-09T02:33:49;99749.59;;;14.03;100.00
29569;BME280;16501;51.462;14.346;2022-09-09T02:36:17;99746.53;;;14.01;100.00
29569;BME280;16501;51.462;14.346;2022-09-09T02:38:46;99770.38;;;14.17;100.00
29569;BME280;16501;51.462;14.346;2022-09-09T02:41:20;99770.38;;;14.23;100.00
29569;BME280;16501;51.462;14.346;2022-09-09T02:43:47;99780.91;;;14.17;100.00
29569;BME280;16501;51.462;14.346;2022-09-09T02:51:33;99754.47;;;14.14;100.00
29569;BME280;16501;51.462;14.346;2022-09-09T02:54:28;99761.91;;;14.11;100.00
29569;BME280;16501;51.462;14.346;2022-09-09T02:57:05;99776.53;;;14.15;100.00
29569;BME280;16501;51.462;14.346;2022-09-09T02:59:32;99781.66;;;14.11;100.00
29569;BME280;16501;51.462;14.346;2022-09-09T03:01:58;99747.78;;;13.83;100.00
29569;BME280;16501;51.462;14.346;2022-09-09T03:04:24;99776.25;;;14.02;100.00
29569;BME280;16501;51.462;14.346;2022-09-09T03:06:50;99788.03;;;14.06;100.00
29569;BME280;16501;51.462;14.346;2022-09-09T03:09:16;99760.59;;;13.90;100.00
29569;BME280;16501;51.462;14.346;2022-09-09T03:11:41;99782.66;;;13.97;100.00
29569;BME280;16501;51.462;14.346;2022-09-09T03:14:06;99777.00;;;13.97;100.00
29569;BME280;16501;51.462;14.346;2022-09-09T03:16:32;99774.69;;;13.95;100.00
29569;BME280;16501;51.462;14.346;2022-09-09T03:19:00;99766.25;;;13.95;100.00
29569;BME280;16501;51.462;14.346;2022-09-09T03:21:25;99763.41;;;13.90;100.00
29569;BME280;16501;51.462;14.346;2022-09-09T03:23:50;99772.66;;;13.96;100.00
29569;BME280;16501;51.462;14.346;2022-09-09T03:26:17;99775.47;;;13.90;100.00
29569;BME280;16501;51.462;14.346;2022-09-09T03:28:43;99788.81;;;14.01;100.00
29569;BME280;16501;51.462;14.346;2022-09-09T03:31:10;99787.78;;;13.99;100.00
29569;BME280;16501;51.462;14.346;2022-09-09T03:33:37;99787.53;;;14.02;100.00
29569;BME280;16501;51.462;14.346;2022-09-09T03:36:04;99779.78;;;13.91;100.00
29569;BME280;16501;51.462;14.346;2022-09-09T03:38:30;99771.06;;;13.84;100.00
29569;BME280;16501;51.462;14.346;2022-09-09T03:40:56;99785.47;;;13.97;100.00
29569;BME280;16501;51.462;14.346;2022-09-09T03:43:26;99774.91;;;13.81;100.00
29569;BME280;16501;51.462;14.346;2022-09-09T03:45:53;99749.78;;;13.66;100.00
29569;BME280;16501;51.462;14.346;2022-09-09T03:48:21;99780.28;;;13.79;100.00
29569;BME280;16501;51.462;14.346;2022-09-09T03:50:52;99785.94;;;13.84;100.00
29569;BME280;16501;51.462;14.346;2022-09-09T03:53:20;99793.59;;;13.72;100.00
29569;BME280;16501;51.462;14.346;2022-09-09T03:55:48;99788.72;;;13.67;100.00
29569;BME280;16501;51.462;14.346;2022-09-09T03:58:14;99789.22;;;13.71;100.00
29569;BME280;16501;51.462;14.346;2022-09-09T04:00:40;99788.19;;;13.69;100.00
29569;BME280;16501;51.462;14.346;2022-09-09T04:03:09;99797.69;;;13.71;100.00
29569;BME280;16501;51.462;14.346;2022-09-09T04:05:35;99786.13;;;13.64;100.00
29569;BME280;16501;51.462;14.346;2022-09-09T04:08:00;99795.13;;;13.73;100.00
29569;BME280;16501;51.462;14.346;2022-09-09T04:10:26;99782.53;;;13.63;100.00
29569;BME280;16501;51.462;14.346;2022-09-09T04:12:53;99783.81;;;13.62;100.00
29569;BME280;16501;51.462;14.346;2022-09-09T04:15:18;99803.06;;;13.75;100.00
29569;BME280;16501;51.462;14.346;2022-09-09T04:17:44;99796.88;;;13.65;100.00
29569;BME280;16501;51.462;14.346;2022-09-09T04:20:09;99802.56;;;13.71;100.00
29569;BME280;16501;51.462;14.346;2022-09-09T04:22:37;99811.50;;;13.69;100.00
29569;BME280;16501;51.462;14.346;2022-09-09T04:25:07;99813.53;;;13.69;100.00
29569;BME280;16501;51.462;14.346;2022-09-09T04:27:32;99813.03;;;13.70;100.00
29569;BME280;16501;51.462;14.346;2022-09-09T04:29:58;99808.69;;;13.69;100.00
29569;BME280;16501;51.462;14.346;2022-09-09T04:32:23;99795.56;;;13.55;100.00
29569;BME280;16501;51.462;14.346;2022-09-09T04:34:52;99807.63;;;13.61;100.00
29569;BME280;16501;51.462;14.346;2022-09-09T04:37:18;99805.84;;;13.64;100.00
29569;BME280;16501;51.462;14.346;2022-09-09T04:39:43;99797.63;;;13.60;100.00
29569;BME280;16501;51.462;14.346;2022-09-09T04:42:08;99803.25;;;13.60;100.00
29569;BME280;16501;51.462;14.346;2022-09-09T04:44:33;99785.84;;;13.56;100.00
29569;BME280;16501;51.462;14.346;2022-09-09T04:46:59;99805.81;;;13.58;100.00
29569;BME280;16501;51.462;14.346;2022-09-09T04:49:24;99800.75;;;13.73;100.00
29569;BME280;16501;51.462;14.346;2022-09-09T04:51:49;99812.84;;;13.85;100.00
29569;BME280;16501;51.462;14.346;2022-09-09T04:54:14;99818.53;;;14.02;100.00
29569;BME280;16501;51.462;14.346;2022-09-09T04:56:40;99792.88;;;13.94;100.00
29569;BME280;16501;51.462;14.346;2022-09-09T04:59:07;99813.69;;;14.14;100.00
29569;BME280;16501;51.462;14.346;2022-09-09T05:01:32;99817.78;;;14.13;100.00
29569;BME280;16501;51.462;14.346;2022-09-09T05:03:58;99826.75;;;14.17;99.14
29569;BME280;16501;51.462;14.346;2022-09-09T05:06:24;99804.97;;;14.06;99.34
29569;BME280;16501;51.462;14.346;2022-09-09T05:08:49;99809.84;;;14.11;98.81
29569;BME280;16501;51.462;14.346;2022-09-09T05:11:22;99809.34;;;14.19;98.86
29569;BME280;16501;51.462;14.346;2022-09-09T05:13:50;99809.34;;;14.13;98.47
29569;BME280;16501;51.462;14.346;2022-09-09T05:16:16;99789.84;;;14.09;98.51
29569;BME280;16501;51.462;14.346;2022-09-09T05:18:42;99788.31;;;14.08;97.88
29569;BME280;16501;51.462;14.346;2022-09-09T05:21:08;99802.19;;;14.23;98.18
29569;BME280;16501;51.462;14.346;2022-09-09T05:23:34;99804.50;;;14.25;98.60
29569;BME280;16501;51.462;14.346;2022-09-09T05:26:00;99819.63;;;14.27;97.71
29569;BME280;16501;51.462;14.346;2022-09-09T05:28:26;99810.09;;;14.19;97.42
29569;BME280;16501;51.462;14.346;2022-09-09T05:30:56;99828.84;;;14.28;97.83
29569;BME280;16501;51.462;14.346;2022-09-09T05:33:24;99836.78;;;14.29;97.65
29569;BME280;16501;51.462;14.346;2022-09-09T05:36:00;99823.22;;;14.39;97.67
29569;BME280;16501;51.462;14.346;2022-09-09T05:38:27;99824.75;;;14.40;97.23
29569;BME280;16501;51.462;14.346;2022-09-09T05:40:52;99830.13;;;14.38;97.55
29569;BME280;16501;51.462;14.346;2022-09-09T05:43:19;99807.03;;;14.23;98.10
29569;BME280;16501;51.462;14.346;2022-09-09T05:45:46;99824.00;;;14.34;98.62
29569;BME280;16501;51.462;14.346;2022-09-09T05:48:15;99826.31;;;14.36;98.53
29569;BME280;16501;51.462;14.346;2022-09-09T05:50:41;99823.72;;;14.32;99.05
29569;BME280;16501;51.462;14.346;2022-09-09T05:53:09;99820.13;;;14.31;99.52
29569;BME280;16501;51.462;14.346;2022-09-09T05:55:35;99812.41;;;14.26;100.00
29569;BME280;16501;51.462;14.346;2022-09-09T05:58:00;99806.53;;;14.19;100.00
29569;BME280;16501;51.462;14.346;2022-09-09T06:00:26;99824.75;;;14.29;100.00
29569;BME280;16501;51.462;14.346;2022-09-09T06:02:52;99819.63;;;14.27;100.00
29569;BME280;16501;51.462;14.346;2022-09-09T06:05:18;99810.13;;;14.25;100.00
29569;BME280;16501;51.462;14.346;2022-09-09T06:07:43;99817.34;;;14.37;100.00
29569;BME280;16501;51.462;14.346;2022-09-09T06:10:10;99831.97;;;14.52;100.00
29569;BME280;16501;51.462;14.346;2022-09-09T06:12:38;99817.34;;;14.54;100.00
29569;BME280;16501;51.462;14.346;2022-09-09T06:15:04;99843.78;;;14.68;100.00
29569;BME280;16501;51.462;14.346;2022-09-09T06:17:29;99842.78;;;14.71;99.41
29569;BME280;16501;51.462;14.346;2022-09-09T06:19:55;99832.78;;;14.70;99.39
29569;BME280;16501;51.462;14.346;2022-09-09T06:22:22;99832.78;;;14.81;99.42
29569;BME280;16501;51.462;14.346;2022-09-09T06:24:47;99826.88;;;15.02;99.67
29569;BME280;16501;51.462;14.346;2022-09-09T06:27:13;99845.06;;;15.23;98.59
29569;BME280;16501;51.462;14.346;2022-09-09T06:29:39;99838.38;;;15.26;97.75
29569;BME280;16501;51.462;14.346;2022-09-09T06:32:06;99846.34;;;15.22;96.99
29569;BME280;16501;51.462;14.346;2022-09-09T06:34:35;99828.91;;;15.13;97.00
29569;BME280;16501;51.462;14.346;2022-09-09T06:37:01;99858.41;;;15.23;97.12
29569;BME280;16501;51.462;14.346;2022-09-09T06:39:29;99814.31;;;14.69;96.33
29569;BME280;16501;51.462;14.346;2022-09-09T06:41:58;99767.84;;;14.30;96.09
29569;BME280;16501;51.462;14.346;2022-09-09T06:44:24;99859.16;;;15.35;96.42
29569;BME280;16501;51.462;14.346;2022-09-09T06:46:52;99721.44;;;14.37;96.45
29569;BME280;16501;51.462;14.346;2022-09-09T06:49:17;99827.88;;;15.04;95.21
29569;BME280;16501;51.462;14.346;2022-09-09T06:51:43;99852.22;;;15.41;95.55
29569;BME280;16501;51.462;14.346;2022-09-09T06:54:09;99843.50;;;15.45;95.54
29569;BME280;16501;51.462;14.346;2022-09-09T06:56:37;99865.03;;;15.59;94.73
29569;BME280;16501;51.462;14.346;2022-09-09T06:59:06;99867.81;;;15.65;95.54
29569;BME280;16501;51.462;14.346;2022-09-09T07:01:38;99866.31;;;15.64;94.84
29569;BME280;16501;51.462;14.346;2022-09-09T07:04:05;99864.72;;;15.69;96.18
29569;BME280;16501;51.462;14.346;2022-09-09T07:06:44;99861.63;;;15.72;96.02
29569;BME280;16501;51.462;14.346;2022-09-09T07:09:12;99842.88;;;15.69;95.97
29569;BME280;16501;51.462;14.346;2022-09-09T07:11:43;99863.16;;;15.90;96.08
29569;BME280;16501;51.462;14.346;2022-09-09T07:14:10;99862.38;;;15.95;96.14
29569;BME280;16501;51.462;14.346;2022-09-09T07:16:39;99858.47;;;15.98;96.18
29569;BME280;16501;51.462;14.346;2022-09-09T07:19:05;99834.88;;;15.84;96.24
29569;BME280;16501;51.462;14.346;2022-09-09T07:21:31;99863.78;;;16.19;96.11
29569;BME280;16501;51.462;14.346;2022-09-09T07:23:57;99840.84;;;16.28;95.62
29569;BME280;16501;51.462;14.346;2022-09-09T07:26:28;99862.78;;;16.58;95.05
29569;BME280;16501;51.462;14.346;2022-09-09T07:28:54;99838.38;;;16.55;93.28
29569;BME280;16501;51.462;14.346;2022-09-09T07:31:25;99850.34;;;16.72;93.03
29569;BME280;16501;51.462;14.346;2022-09-09T07:33:51;99847.81;;;16.63;90.60
29569;BME280;16501;51.462;14.346;2022-09-09T07:36:19;99871.19;;;16.69;91.36
29569;BME280;16501;51.462;14.346;2022-09-09T07:38:50;99873.69;;;16.78;91.84
29569;BME280;16501;51.462;14.346;2022-09-09T07:41:20;99858.50;;;16.82;92.13
29569;BME280;16501;51.462;14.346;2022-09-09T07:43:46;99869.59;;;17.10;91.45
29569;BME280;16501;51.462;14.346;2022-09-09T07:46:14;99861.09;;;17.15;91.04
29569;BME280;16501;51.462;14.346;2022-09-09T07:48:47;99863.97;;;17.34;89.92
29569;BME280;16501;51.462;14.346;2022-09-09T07:51:17;99866.19;;;17.47;88.06
29569;BME280;16501;51.462;14.346;2022-09-09T07:53:45;99877.75;;;17.49;88.68
29569;BME280;16501;51.462;14.346;2022-09-09T07:56:13;99880.56;;;17.49;86.93
29569;BME280;16501;51.462;14.346;2022-09-09T07:58:40;99861.78;;;17.46;88.06
29569;BME280;16501;51.462;14.346;2022-09-09T08:01:11;99889.56;;;17.78;86.10
29569;BME280;16501;51.462;14.346;2022-09-09T08:03:37;99875.09;;;17.82;86.23
29569;BME280;16501;51.462;14.346;2022-09-09T08:06:05;99864.03;;;18.03;86.21
29569;BME280;16501;51.462;14.346;2022-09-09T08:08:32;99881.91;;;18.17;82.46
29569;BME280;16501;51.462;14.346;2022-09-09T08:11:05;99876.38;;;18.24;82.38
29569;BME280;16501;51.462;14.346;2022-09-09T08:13:33;99878.28;;;18.35;83.45
29569;BME280;16501;51.462;14.346;2022-09-09T08:16:10;99881.91;;;18.36;76.96
29569;BME280;16501;51.462;14.346;2022-09-09T08:18:36;99872.06;;;18.37;80.69
29569;BME280;16501;51.462;14.346;2022-09-09T08:24:13;99874.72;;;18.86;79.62
29569;BME280;16501;51.462;14.346;2022-09-09T08:26:43;99872.66;;;18.87;76.13
29569;BME280;16501;51.462;14.346;2022-09-09T08:29:11;99883.50;;;19.01;76.49
29569;BME280;16501;51.462;14.346;2022-09-09T08:31:48;99888.81;;;19.24;76.69
29569;BME280;16501;51.462;14.346;2022-09-09T08:34:14;99898.34;;;19.27;74.16
29569;BME280;16501;51.462;14.346;2022-09-09T08:36:42;99885.91;;;19.30;73.71
29569;BME280;16501;51.462;14.346;2022-09-09T08:39:10;99884.69;;;19.52;76.00
29569;BME280;16501;51.462;14.346;2022-09-09T08:42:00;99896.84;;;19.66;73.42
29569;BME280;16501;51.462;14.346;2022-09-09T08:47:13;99895.91;;;20.03;74.82
29569;BME280;16501;51.462;14.346;2022-09-09T08:49:55;99894.91;;;20.14;74.11
29569;BME280;16501;51.462;14.346;2022-09-09T08:52:30;99903.09;;;20.18;72.34
29569;BME280;16501;51.462;14.346;2022-09-09T08:55:01;99875.19;;;20.16;69.06
29569;BME280;16501;51.462;14.346;2022-09-09T08:57:28;99886.34;;;20.27;68.13
29569;BME280;16501;51.462;14.346;2022-09-09T08:59:56;99890.13;;;20.43;68.40
29569;BME280;16501;51.462;14.346;2022-09-09T09:02:50;99874.34;;;20.42;68.83
29569;BME280;16501;51.462;14.346;2022-09-09T09:05:27;99864.88;;;20.61;70.48
29569;BME280;16501;51.462;14.346;2022-09-09T09:08:15;99892.59;;;20.95;66.62
29569;BME280;16501;51.462;14.346;2022-09-09T09:10:54;99881.00;;;20.93;64.35
29569;BME280;16501;51.462;14.346;2022-09-09T09:13:39;99886.53;;;21.19;65.81
29569;BME280;16501;51.462;14.346;2022-09-09T09:16:16;99892.91;;;21.33;65.82
29569;BME280;16501;51.462;14.346;2022-09-09T09:18:44;99865.94;;;21.34;65.89
29569;BME280;16501;51.462;14.346;2022-09-09T09:24:07;99881.50;;;21.54;63.88
29569;BME280;16501;51.462;14.346;2022-09-09T09:26:37;99882.22;;;21.47;62.87
29569;BME280;16501;51.462;14.346;2022-09-09T09:29:17;99886.19;;;21.44;63.88
29569;BME280;16501;51.462;14.346;2022-09-09T09:31:45;99894.53;;;21.21;62.71
29569;BME280;16501;51.462;14.346;2022-09-09T09:34:12;99869.44;;;20.98;65.10
29569;BME280;16501;51.462;14.346;2022-09-09T09:36:43;99878.53;;;20.97;65.21
29569;BME280;16501;51.462;14.346;2022-09-09T09:39:24;99866.78;;;20.79;67.26
29569;BME280;16501;51.462;14.346;2022-09-09T09:41:50;99847.69;;;20.66;66.28
29569;BME280;16501;51.462;14.346;2022-09-09T09:44:30;99875.56;;;21.02;67.22
29569;BME280;16501;51.462;14.346;2022-09-09T09:47:25;99879.94;;;21.24;68.44
29569;BME280;16501;51.462;14.346;2022-09-09T09:49:56;99879.13;;;21.16;68.04
29569;BME280;16501;51.462;14.346;2022-09-09T09:52:25;99884.72;;;21.51;65.51
29569;BME280;16501;51.462;14.346;2022-09-09T09:54:52;99876.25;;;21.66;65.03
29569;BME280;16501;51.462;14.346;2022-09-09T09:57:23;99873.34;;;21.87;61.07
29569;BME280;16501;51.462;14.346;2022-09-09T10:00:00;99857.13;;;21.82;57.63
29569;BME280;16501;51.462;14.346;2022-09-09T10:02:37;99880.34;;;21.78;56.90
29569;BME280;16501;51.462;14.346;2022-09-09T10:05:20;99883.97;;;21.79;57.41
29569;BME280;16501;51.462;14.346;2022-09-09T10:07:46;99862.75;;;21.66;58.24
29569;BME280;16501;51.462;14.346;2022-09-09T10:10:26;99874.69;;;21.86;56.56
29569;BME280;16501;51.462;14.346;2022-09-09T10:13:04;99863.38;;;22.09;56.62
29569;BME280;16501;51.462;14.346;2022-09-09T10:15:53;99878.75;;;22.35;56.70
29569;BME280;16501;51.462;14.346;2022-09-09T10:18:30;99862.91;;;22.34;58.25
29569;BME280;16501;51.462;14.346;2022-09-09T10:27:04;99882.41;;;21.70;58.53
29569;BME280;16501;51.462;14.346;2022-09-09T10:41:22;99932.72;;;19.10;86.75
29569;BME280;16501;51.462;14.346;2022-09-09T10:46:58;99943.34;;;18.71;86.43
29569;BME280;16501;51.462;14.346;2022-09-09T10:52:18;99947.88;;;18.80;90.69
29569;BME280;16501;51.462;14.346;2022-09-09T10:57:25;99935.47;;;18.83;92.44
29569;BME280;16501;51.462;14.346;2022-09-09T10:59:55;99947.66;;;18.78;88.76
29569;BME280;16501;51.462;14.346;2022-09-09T11:02:29;99944.63;;;18.70;90.45
29569;BME280;16501;51.462;14.346;2022-09-09T11:05:03;99928.91;;;18.69;92.81
29569;BME280;16501;51.462;14.346;2022-09-09T11:10:12;99922.03;;;18.83;91.40
29569;BME280;16501;51.462;14.346;2022-09-09T11:12:42;99901.22;;;18.56;92.56
29569;BME280;16501;51.462;14.346;2022-09-09T11:15:23;99911.63;;;18.86;93.43
29569;BME280;16501;51.462;14.346;2022-09-09T11:17:53;99876.03;;;18.66;92.20
29569;BME280;16501;51.462;14.346;2022-09-09T11:20:22;99911.16;;;19.01;91.66
29569;BME280;16501;51.462;14.346;2022-09-09T11:25:36;99889.97;;;19.02;92.27
29569;BME280;16501;51.462;14.346;2022-09-09T11:34:01;99898.91;;;19.52;91.69
29569;BME280;16501;51.462;14.346;2022-09-09T11:36:44;99884.06;;;19.59;91.56
29569;BME280;16501;51.462;14.346;2022-09-09T11:44:39;99892.97;;;20.43;93.19
29569;BME280;16501;51.462;14.346;2022-09-09T11:47:21;99870.41;;;20.45;91.66
29569;BME280;16501;51.462;14.346;2022-09-09T11:49:47;99888.31;;;20.67;92.86
29569;BME280;16501;51.462;14.346;2022-09-09T11:52:23;99885.22;;;20.78;90.38
29569;BME280;16501;51.462;14.346;2022-09-09T11:54:50;99875.09;;;20.90;89.93
29569;BME280;16501;51.462;14.346;2022-09-09T11:57:32;99867.63;;;20.87;87.87
29569;BME280;16501;51.462;14.346;2022-09-09T11:59:59;99864.94;;;21.03;85.75
29569;BME280;16501;51.462;14.346;2022-09-09T12:02:27;99868.81;;;21.13;88.04
29569;BME280;16501;51.462;14.346;2022-09-09T12:05:00;99888.78;;;21.13;86.29
29569;BME280;16501;51.462;14.346;2022-09-09T12:10:37;99878.75;;;20.78;85.24
29569;BME280;16501;51.462;14.346;2022-09-09T12:13:23;99879.72;;;20.80;86.14
29569;BME280;16501;51.462;14.346;2022-09-09T12:15:59;99879.19;;;20.82;88.36
29569;BME280;16501;51.462;14.346;2022-09-09T12:18:34;99873.13;;;20.85;88.92
29569;BME280;16501;51.462;14.346;2022-09-09T12:21:10;99875.97;;;20.85;88.33
29569;BME280;16501;51.462;14.346;2022-09-09T12:23:55;99876.88;;;20.80;87.92
29569;BME280;16501;51.462;14.346;2022-09-09T12:26:31;99867.69;;;20.74;87.89
29569;BME280;16501;51.462;14.346;2022-09-09T12:29:14;99866.09;;;20.65;89.25
29569;BME280;16501;51.462;14.346;2022-09-09T12:32:00;99870.94;;;20.57;90.06
29569;BME280;16501;51.462;14.346;2022-09-09T12:34:41;99865.41;;;20.38;89.55
29569;BME280;16501;51.462;14.346;2022-09-09T12:40:22;99864.97;;;20.34;90.24
29569;BME280;16501;51.462;14.346;2022-09-09T12:42:47;99835.34;;;20.16;92.51
29569;BME280;16501;51.462;14.346;2022-09-09T12:45:24;99843.41;;;20.25;94.24
29569;BME280;16501;51.462;14.346;2022-09-09T12:47:57;99844.81;;;20.32;94.85
29569;BME280;16501;51.462;14.346;2022-09-09T12:50:29;99840.22;;;20.29;94.75
29569;BME280;16501;51.462;14.346;2022-09-09T12:52:57;99837.28;;;20.34;94.65
29569;BME280;16501;51.462;14.346;2022-09-09T12:55:36;99840.56;;;20.25;95.79
29569;BME280;16501;51.462;14.346;2022-09-09T12:58:04;99851.91;;;20.39;96.34
29569;BME280;16501;51.462;14.346;2022-09-09T13:00:32;99850.63;;;20.40;95.70
29569;BME280;16501;51.462;14.346;2022-09-09T13:02:59;99845.09;;;20.21;95.71
29569;BME280;16501;51.462;14.346;2022-09-09T13:05:28;99834.97;;;20.33;96.74
29569;BME280;16501;51.462;14.346;2022-09-09T13:08:08;99800.81;;;20.33;97.41
29569;BME280;16501;51.462;14.346;2022-09-09T13:10:38;99817.91;;;20.67;96.85
29569;BME280;16501;51.462;14.346;2022-09-09T13:13:36;99831.34;;;21.09;93.63
29569;BME280;16501;51.462;14.346;2022-09-09T13:16:04;99840.63;;;21.31;93.20
29569;BME280;16501;51.462;14.346;2022-09-09T13:18:34;99832.56;;;21.42;89.66
29569;BME280;16501;51.462;14.346;2022-09-09T13:21:00;99815.63;;;21.44;89.04
29569;BME280;16501;51.462;14.346;2022-09-09T13:23:27;99803.25;;;21.42;85.77
29569;BME280;16501;51.462;14.346;2022-09-09T13:26:06;99829.47;;;21.61;84.28
29569;BME280;16501;51.462;14.346;2022-09-09T13:28:46;99807.75;;;21.58;85.35
29569;BME280;16501;51.462;14.346;2022-09-09T13:31:27;99826.53;;;21.82;84.93
29569;BME280;16501;51.462;14.346;2022-09-09T13:33:52;99787.47;;;21.70;79.73
29569;BME280;16501;51.462;14.346;2022-09-09T13:36:28;99793.97;;;21.78;73.63
29569;BME280;16501;51.462;14.346;2022-09-09T13:38:56;99821.50;;;22.12;75.18
29569;BME280;16501;51.462;14.346;2022-09-09T13:41:24;99813.91;;;22.22;73.91
29569;BME280;16501;51.462;14.346;2022-09-09T13:43:50;99797.34;;;22.13;73.64
29569;BME280;16501;51.462;14.346;2022-09-09T13:46:31;99788.03;;;22.20;66.98
29569;BME280;16501;51.462;14.346;2022-09-09T13:49:21;99781.94;;;22.23;64.30
29569;BME280;16501;51.462;14.346;2022-09-09T13:51:51;99812.72;;;22.62;68.59
29569;BME280;16501;51.462;14.346;2022-09-09T13:54:19;99792.69;;;22.38;70.51
29569;BME280;16501;51.462;14.346;2022-09-09T13:56:45;99804.13;;;22.54;65.91
29569;BME280;16501;51.462;14.346;2022-09-09T13:59:16;99806.81;;;22.67;67.35
29569;BME280;16501;51.462;14.346;2022-09-09T14:01:43;99791.19;;;22.68;65.97
29569;BME280;16501;51.462;14.346;2022-09-09T14:04:09;99797.69;;;22.84;66.26
29569;BME280;16501;51.462;14.346;2022-09-09T14:06:35;99813.69;;;22.95;63.57
29569;BME280;16501;51.462;14.346;2022-09-09T14:09:03;99794.59;;;22.51;63.67
29569;BME280;16501;51.462;14.346;2022-09-09T14:11:29;99779.91;;;22.39;68.28
29569;BME280;16501;51.462;14.346;2022-09-09T14:13:54;99805.66;;;22.47;69.92
29569;BME280;16501;51.462;14.346;2022-09-09T14:16:19;99804.31;;;22.56;70.40
29569;BME280;16501;51.462;14.346;2022-09-09T14:18:46;99774.22;;;22.47;70.36
29569;BME280;16501;51.462;14.346;2022-09-09T14:21:12;99798.59;;;22.64;71.32
29569;BME280;16501;51.462;14.346;2022-09-09T14:23:37;99789.44;;;22.50;68.98
29569;BME280;16501;51.462;14.346;2022-09-09T14:26:03;99789.41;;;22.34;67.84
29569;BME280;16501;51.462;14.346;2022-09-09T14:28:28;99790.16;;;22.27;65.58
29569;BME280;16501;51.462;14.346;2022-09-09T14:30:54;99783.06;;;22.05;64.14
29569;BME280;16501;51.462;14.346;2022-09-09T14:33:19;99794.06;;;22.01;68.21
29569;BME280;16501;51.462;14.346;2022-09-09T14:35:45;99773.66;;;21.89;69.75
29569;BME280;16501;51.462;14.346;2022-09-09T14:38:10;99788.69;;;21.90;71.46
29569;BME280;16501;51.462;14.346;2022-09-09T14:40:36;99774.94;;;21.80;73.24
29569;BME280;16501;51.462;14.346;2022-09-09T14:43:03;99783.34;;;21.86;75.34
29569;BME280;16501;51.462;14.346;2022-09-09T14:45:28;99770.50;;;21.64;77.67
29569;BME280;16501;51.462;14.346;2022-09-09T14:47:54;99780.19;;;21.61;78.34
29569;BME280;16501;51.462;14.346;2022-09-09T14:50:21;99785.94;;;21.69;79.87
29569;BME280;16501;51.462;14.346;2022-09-09T14:52:47;99776.97;;;21.64;80.20
29569;BME280;16501;51.462;14.346;2022-09-09T14:55:12;99778.13;;;21.61;80.03